sensor_id;sensor_type;location;lat;lon;timestamp;pressure;altitude;pressure_sealevel;temperature;humidity
34506;BME280;20748;42.632;23.198;2023-04-15T00:00:13;91272.66;;;6.04;100.00
34506;BME280;20748;42.632;23.198;2023-04-15T00:02:49;91272.72;;;5.99;100.00
34506;BME280;20748;42.632;23.198;2023-04-15T00:05:22;91271.03;;;6.09;100.00
34506;BME280;20748;42.632;23.198;2023-04-15T00:07:54;91276.41;;;6.12;100.00
34506;BME280;20748;42.632;23.198;2023-04-15T00:10:27;91271.88;;;6.18;100.00
34506;BME280;20748;42.632;23.198;2023-04-15T00:13:00;91264.00;;;6.23;100.00
34506;BME280;20748;42.632;23.198;2023-04-15T00:15:33;91276.41;;;6.12;100.00
34506;BME280;20748;42.632;23.198;2023-04-15T00:18:05;91278.50;;;6.24;100.00
34506;BME280;20748;42.632;23.198;2023-04-15T00:20:39;91277.06;;;6.18;100.00
34506;BME280;20748;42.632;23.198;2023-04-15T00:23:12;91288.66;;;6.21;100.00
34506;BME280;20748;42.632;23.198;2023-04-15T00:25:44;91289.53;;;6.30;100.00
34506;BME280;20748;42.632;23.198;2023-04-15T00:28:17;91292.78;;;6.22;100.00
34506;BME280;20748;42.632;23.198;2023-04-15T00:30:49;91292.22;;;6.25;100.00
34506;BME280;20748;42.632;23.198;2023-04-15T00:33:21;91285.31;;;6.34;100.00
34506;BME280;20748;42.632;23.198;2023-04-15T00:35:55;91285.19;;;6.39;100.00
34506;BME280;20748;42.632;23.198;2023-04-15T00:38:27;91278.59;;;6.47;100.00
34506;BME280;20748;42.632;23.198;2023-04-15T00:41:00;91269.94;;;6.52;100.00
34506;BME280;20748;42.632;23.198;2023-04-15T00:43:33;91268.88;;;6.53;100.00
34506;BME280;20748;42.632;23.198;2023-04-15T00:46:06;91276.78;;;6.48;100.00
34506;BME280;20748;42.632;23.198;2023-04-15T00:48:39;91285.59;;;6.33;100.00
34506;BME280;20748;42.632;23.198;2023-04-15T00:51:12;91278.31;;;6.35;100.00
34506;BME280;20748;42.632;23.198;2023-04-15T00:53:45;91280.72;;;6.17;100.00
34506;BME280;20748;42.632;23.198;2023-04-15T00:56:19;91280.22;;;6.29;100.00
34506;BME280;20748;42.632;23.198;2023-04-15T00:58:55;91275.81;;;6.29;100.00
34506;BME280;20748;42.632;23.198;2023-04-15T01:01:28;91275.53;;;6.31;100.00
34506;BME280;20748;42.632;23.198;2023-04-15T01:04:01;91276.59;;;6.30;100.00
34506;BME280;20748;42.632;23.198;2023-04-15T01:06:35;91276.69;;;6.25;100.00
34506;BME280;20748;42.632;23.198;2023-04-15T01:09:07;91266.31;;;6.25;100.00
34506;BME280;20748;42.632;23.198;2023-04-15T01:11:40;91275.72;;;6.21;100.00
34506;BME280;20748;42.632;23.198;2023-04-15T01:14:12;91273.41;;;6.19;100.00
34506;BME280;20748;42.632;23.198;2023-04-15T01:16:45;91268.91;;;6.25;100.00
34506;BME280;20748;42.632;23.198;2023-04-15T01:19:18;91274.81;;;5.97;100.00
34506;BME280;20748;42.632;23.198;2023-04-15T01:21:52;91273.41;;;6.05;100.00
34506;BME280;20748;42.632;23.198;2023-04-15T01:24:25;91277.88;;;5.99;100.00
34506;BME280;20748;42.632;23.198;2023-04-15T01:27:00;91279.56;;;6.09;100.00
34506;BME280;20748;42.632;23.198;2023-04-15T01:29:37;91266.97;;;6.02;100.00
34506;BME280;20748;42.632;23.198;2023-04-15T01:32:10;91270.16;;;6.13;100.00
34506;BME280;20748;42.632;23.198;2023-04-15T01:35:01;91270.44;;;6.12;100.00
34506;BME280;20748;42.632;23.198;2023-04-15T01:37:52;91276.41;;;6.12;100.00
34506;BME280;20748;42.632;23.198;2023-04-15T01:40:25;91271.03;;;6.09;100.00
34506;BME280;20748;42.632;23.198;2023-04-15T01:42:59;91276.22;;;6.09;100.00
34506;BME280;20748;42.632;23.198;2023-04-15T01:45:34;91276.28;;;6.03;100.00
34506;BME280;20748;42.632;23.198;2023-04-15T01:48:10;91280.88;;;6.07;100.00
34506;BME280;20748;42.632;23.198;2023-04-15T01:50:44;91279.50;;;5.95;100.00
34506;BME280;20748;42.632;23.198;2023-04-15T01:53:18;91273.56;;;5.95;100.00
34506;BME280;20748;42.632;23.198;2023-04-15T01:55:52;91265.91;;;5.89;100.00
34506;BME280;20748;42.632;23.198;2023-04-15T01:58:26;91276.34;;;5.84;100.00
34506;BME280;20748;42.632;23.198;2023-04-15T02:01:01;91279.13;;;5.88;100.00
34506;BME280;20748;42.632;23.198;2023-04-15T02:03:37;91285.16;;;5.83;100.00
34506;BME280;20748;42.632;23.198;2023-04-15T02:06:11;91279.56;;;5.76;100.00
34506;BME280;20748;42.632;23.198;2023-04-15T02:08:45;91278.34;;;5.73;100.00
34506;BME280;20748;42.632;23.198;2023-04-15T02:11:18;91279.56;;;5.62;100.00
34506;BME280;20748;42.632;23.198;2023-04-15T02:13:52;91275.41;;;5.61;100.00
34506;BME280;20748;42.632;23.198;2023-04-15T02:16:26;91278.78;;;5.61;100.00
34506;BME280;20748;42.632;23.198;2023-04-15T02:19:00;91278.34;;;5.40;100.00
34506;BME280;20748;42.632;23.198;2023-04-15T02:21:35;91277.88;;;5.38;100.00
34506;BME280;20748;42.632;23.198;2023-04-15T02:24:09;91274.31;;;5.34;100.00
34506;BME280;20748;42.632;23.198;2023-04-15T02:26:47;91268.09;;;5.35;100.00
34506;BME280;20748;42.632;23.198;2023-04-15T02:29:22;91267.88;;;5.31;100.00
34506;BME280;20748;42.632;23.198;2023-04-15T02:31:55;91274.13;;;5.30;100.00
34506;BME280;20748;42.632;23.198;2023-04-15T02:34:29;91277.97;;;5.33;100.00
34506;BME280;20748;42.632;23.198;2023-04-15T02:37:05;91280.34;;;5.29;100.00
34506;BME280;20748;42.632;23.198;2023-04-15T02:39:40;91269.91;;;5.34;100.00
34506;BME280;20748;42.632;23.198;2023-04-15T02:42:15;91275.28;;;5.38;100.00
34506;BME280;20748;42.632;23.198;2023-04-15T02:44:49;91278.22;;;5.31;100.00
34506;BME280;20748;42.632;23.198;2023-04-15T02:47:24;91272.59;;;5.29;100.00
34506;BME280;20748;42.632;23.198;2023-04-15T02:49:58;91269.41;;;5.32;100.00
34506;BME280;20748;42.632;23.198;2023-04-15T02:52:34;91269.69;;;5.31;100.00
34506;BME280;20748;42.632;23.198;2023-04-15T02:55:08;91276.69;;;5.30;100.00
34506;BME280;20748;42.632;23.198;2023-04-15T02:57:43;91279.75;;;5.32;100.00
34506;BME280;20748;42.632;23.198;2023-04-15T03:00:17;91278.63;;;5.38;100.00
34506;BME280;20748;42.632;23.198;2023-04-15T03:02:57;91283.88;;;5.33;100.00
34506;BME280;20748;42.632;23.198;2023-04-15T03:05:31;91274.47;;;5.23;100.00
34506;BME280;20748;42.632;23.198;2023-04-15T03:08:06;91295.47;;;5.36;100.00
34506;BME280;20748;42.632;23.198;2023-04-15T03:10:40;91299.19;;;5.30;100.00
34506;BME280;20748;42.632;23.198;2023-04-15T03:13:13;91303.31;;;5.31;100.00
34506;BME280;20748;42.632;23.198;2023-04-15T03:15:48;91299.56;;;5.23;100.00
34506;BME280;20748;42.632;23.198;2023-04-15T03:18:22;91303.56;;;5.15;100.00
34506;BME280;20748;42.632;23.198;2023-04-15T03:20:56;91304.69;;;5.09;100.00
34506;BME280;20748;42.632;23.198;2023-04-15T03:23:30;91318.94;;;5.06;100.00
34506;BME280;20748;42.632;23.198;2023-04-15T03:26:04;91324.88;;;5.07;100.00
34506;BME280;20748;42.632;23.198;2023-04-15T03:28:39;91318.75;;;5.03;100.00
34506;BME280;20748;42.632;23.198;2023-04-15T03:31:14;91326.06;;;4.95;100.00
34506;BME280;20748;42.632;23.198;2023-04-15T03:33:47;91316.56;;;4.91;100.00
34506;BME280;20748;42.632;23.198;2023-04-15T03:36:21;91323.53;;;4.90;100.00
34506;BME280;20748;42.632;23.198;2023-04-15T03:38:55;91330.81;;;4.88;100.00
34506;BME280;20748;42.632;23.198;2023-04-15T03:41:28;91334.72;;;4.86;100.00
34506;BME280;20748;42.632;23.198;2023-04-15T03:44:02;91339.25;;;4.75;100.00
34506;BME280;20748;42.632;23.198;2023-04-15T03:46:37;91339.09;;;4.66;100.00
34506;BME280;20748;42.632;23.198;2023-04-15T03:49:10;91341.81;;;4.55;100.00
34506;BME280;20748;42.632;23.198;2023-04-15T03:51:44;91340.22;;;4.60;100.00
34506;BME280;20748;42.632;23.198;2023-04-15T03:54:18;91329.59;;;4.61;100.00
34506;BME280;20748;42.632;23.198;2023-04-15T03:56:52;91330.84;;;4.64;100.00
34506;BME280;20748;42.632;23.198;2023-04-15T03:59:25;91327.78;;;4.62;100.00
34506;BME280;20748;42.632;23.198;2023-04-15T04:02:00;91331.56;;;4.69;100.00
34506;BME280;20748;42.632;23.198;2023-04-15T04:04:34;91340.09;;;4.70;100.00
34506;BME280;20748;42.632;23.198;2023-04-15T04:07:08;91343.22;;;4.67;100.00
34506;BME280;20748;42.632;23.198;2023-04-15T04:09:41;91344.69;;;4.73;100.00
34506;BME280;20748;42.632;23.198;2023-04-15T04:12:15;91340.09;;;4.70;100.00
34506;BME280;20748;42.632;23.198;2023-04-15T04:14:49;91343.44;;;4.70;100.00
34506;BME280;20748;42.632;23.198;2023-04-15T04:17:23;91340.56;;;4.72;100.00
34506;BME280;20748;42.632;23.198;2023-04-15T04:19:56;91343.84;;;4.78;100.00
34506;BME280;20748;42.632;23.198;2023-04-15T04:22:30;91352.06;;;4.85;100.00
34506;BME280;20748;42.632;23.198;2023-04-15T04:25:04;91346.59;;;4.87;100.00
34506;BME280;20748;42.632;23.198;2023-04-15T04:27:39;91344.22;;;4.90;100.00
34506;BME280;20748;42.632;23.198;2023-04-15T04:30:12;91351.97;;;4.90;100.00
34506;BME280;20748;42.632;23.198;2023-04-15T04:32:48;91356.66;;;4.88;100.00
34506;BME280;20748;42.632;23.198;2023-04-15T04:35:22;91346.78;;;4.90;100.00
34506;BME280;20748;42.632;23.198;2023-04-15T04:37:56;91352.28;;;4.89;100.00
34506;BME280;20748;42.632;23.198;2023-04-15T04:40:30;91346.66;;;4.81;100.00
34506;BME280;20748;42.632;23.198;2023-04-15T04:43:03;91360.34;;;4.82;100.00
34506;BME280;20748;42.632;23.198;2023-04-15T04:45:37;91354.56;;;4.90;100.00
34506;BME280;20748;42.632;23.198;2023-04-15T04:48:11;91354.78;;;4.94;100.00
34506;BME280;20748;42.632;23.198;2023-04-15T04:50:45;91354.78;;;4.94;100.00
34506;BME280;20748;42.632;23.198;2023-04-15T04:53:19;91354.78;;;4.94;100.00
34506;BME280;20748;42.632;23.198;2023-04-15T04:55:52;91362.81;;;4.92;100.00
34506;BME280;20748;42.632;23.198;2023-04-15T04:58:26;91364.84;;;4.95;100.00
34506;BME280;20748;42.632;23.198;2023-04-15T05:01:00;91369.19;;;5.00;100.00
34506;BME280;20748;42.632;23.198;2023-04-15T05:03:35;91379.47;;;5.05;100.00
34506;BME280;20748;42.632;23.198;2023-04-15T05:06:10;91373.03;;;5.03;100.00
34506;BME280;20748;42.632;23.198;2023-04-15T05:08:43;91376.44;;;5.17;100.00
34506;BME280;20748;42.632;23.198;2023-04-15T05:11:18;91388.28;;;5.23;100.00
34506;BME280;20748;42.632;23.198;2023-04-15T05:13:52;91393.31;;;5.34;100.00
34506;BME280;20748;42.632;23.198;2023-04-15T05:16:25;91397.16;;;5.36;100.00
34506;BME280;20748;42.632;23.198;2023-04-15T05:19:00;91401.13;;;5.48;100.00
34506;BME280;20748;42.632;23.198;2023-04-15T05:21:34;91391.97;;;5.56;100.00
34506;BME280;20748;42.632;23.198;2023-04-15T05:24:10;91393.34;;;5.67;100.00
34506;BME280;20748;42.632;23.198;2023-04-15T05:26:44;91387.47;;;5.81;100.00
34506;BME280;20748;42.632;23.198;2023-04-15T05:29:18;91387.84;;;5.88;100.00
34506;BME280;20748;42.632;23.198;2023-04-15T05:31:51;91387.13;;;6.01;100.00
34506;BME280;20748;42.632;23.198;2023-04-15T05:34:26;91383.72;;;6.20;100.00
34506;BME280;20748;42.632;23.198;2023-04-15T05:36:59;91391.44;;;6.39;100.00
34506;BME280;20748;42.632;23.198;2023-04-15T05:39:33;91392.22;;;6.54;100.00
34506;BME280;20748;42.632;23.198;2023-04-15T05:42:07;91392.91;;;6.74;100.00
34506;BME280;20748;42.632;23.198;2023-04-15T05:44:40;91403.66;;;6.95;100.00
34506;BME280;20748;42.632;23.198;2023-04-15T05:47:14;91406.78;;;7.06;100.00
34506;BME280;20748;42.632;23.198;2023-04-15T05:49:48;91397.66;;;7.22;99.95
34506;BME280;20748;42.632;23.198;2023-04-15T05:52:22;91410.88;;;7.35;95.68
34506;BME280;20748;42.632;23.198;2023-04-15T05:54:55;91401.66;;;7.43;88.91
34506;BME280;20748;42.632;23.198;2023-04-15T05:57:29;91410.94;;;7.58;88.84
34506;BME280;20748;42.632;23.198;2023-04-15T06:00:04;91410.41;;;7.70;90.10
34506;BME280;20748;42.632;23.198;2023-04-15T06:02:42;91411.06;;;7.75;86.10
34506;BME280;20748;42.632;23.198;2023-04-15T06:05:17;91409.41;;;7.79;82.58
34506;BME280;20748;42.632;23.198;2023-04-15T06:07:50;91418.44;;;7.82;80.82
34506;BME280;20748;42.632;23.198;2023-04-15T06:10:24;91412.72;;;7.94;81.51
34506;BME280;20748;42.632;23.198;2023-04-15T06:12:58;91425.66;;;8.08;80.47
34506;BME280;20748;42.632;23.198;2023-04-15T06:15:32;91429.38;;;8.16;79.46
34506;BME280;20748;42.632;23.198;2023-04-15T06:18:06;91432.63;;;8.22;79.76
34506;BME280;20748;42.632;23.198;2023-04-15T06:20:40;91432.81;;;8.25;80.04
34506;BME280;20748;42.632;23.198;2023-04-15T06:23:14;91442.06;;;8.40;80.78
34506;BME280;20748;42.632;23.198;2023-04-15T06:25:47;91442.69;;;8.46;75.57
34506;BME280;20748;42.632;23.198;2023-04-15T06:28:21;91448.13;;;8.58;77.64
34506;BME280;20748;42.632;23.198;2023-04-15T06:30:55;91445.53;;;8.58;76.16
34506;BME280;20748;42.632;23.198;2023-04-15T06:33:28;91449.06;;;8.63;76.12
34506;BME280;20748;42.632;23.198;2023-04-15T06:36:03;91461.41;;;8.89;77.90
34506;BME280;20748;42.632;23.198;2023-04-15T06:38:36;91456.06;;;8.85;75.74
34506;BME280;20748;42.632;23.198;2023-04-15T06:41:10;91457.66;;;9.12;77.16
34506;BME280;20748;42.632;23.198;2023-04-15T06:43:44;91465.66;;;9.16;73.91
34506;BME280;20748;42.632;23.198;2023-04-15T06:46:17;91471.75;;;9.11;73.82
34506;BME280;20748;42.632;23.198;2023-04-15T06:48:51;91469.66;;;9.22;70.04
34506;BME280;20748;42.632;23.198;2023-04-15T06:51:26;91468.94;;;9.39;71.46
34506;BME280;20748;42.632;23.198;2023-04-15T06:53:59;91459.28;;;9.31;71.04
34506;BME280;20748;42.632;23.198;2023-04-15T06:56:34;91461.31;;;9.61;69.67
34506;BME280;20748;42.632;23.198;2023-04-15T06:59:07;91465.94;;;9.73;71.66
34506;BME280;20748;42.632;23.198;2023-04-15T07:01:41;91469.78;;;9.75;71.20
34506;BME280;20748;42.632;23.198;2023-04-15T07:04:15;91465.94;;;9.64;72.56
34506;BME280;20748;42.632;23.198;2023-04-15T07:06:49;91464.22;;;9.59;71.68
34506;BME280;20748;42.632;23.198;2023-04-15T07:09:23;91462.25;;;9.65;73.25
34506;BME280;20748;42.632;23.198;2023-04-15T07:11:57;91469.44;;;9.77;73.67
34506;BME280;20748;42.632;23.198;2023-04-15T07:14:31;91480.19;;;9.75;70.95
34506;BME280;20748;42.632;23.198;2023-04-15T07:17:04;91477.25;;;9.77;72.35
34506;BME280;20748;42.632;23.198;2023-04-15T07:19:38;91481.56;;;9.82;74.53
34506;BME280;20748;42.632;23.198;2023-04-15T07:22:13;91481.59;;;9.90;72.88
34506;BME280;20748;42.632;23.198;2023-04-15T07:24:46;91479.13;;;10.20;72.12
34506;BME280;20748;42.632;23.198;2023-04-15T07:27:20;91493.53;;;10.27;67.44
34506;BME280;20748;42.632;23.198;2023-04-15T07:29:54;91504.72;;;10.36;63.39
34506;BME280;20748;42.632;23.198;2023-04-15T07:32:27;91494.63;;;10.52;64.96
34506;BME280;20748;42.632;23.198;2023-04-15T07:35:01;91483.38;;;10.60;64.93
34506;BME280;20748;42.632;23.198;2023-04-15T07:37:36;91488.75;;;10.64;63.87
34506;BME280;20748;42.632;23.198;2023-04-15T07:40:10;91483.38;;;10.69;63.98
34506;BME280;20748;42.632;23.198;2023-04-15T07:42:45;91477.56;;;10.64;63.60
34506;BME280;20748;42.632;23.198;2023-04-15T07:45:20;91492.72;;;10.79;65.96
34506;BME280;20748;42.632;23.198;2023-04-15T07:47:53;91494.44;;;10.57;64.13
34506;BME280;20748;42.632;23.198;2023-04-15T07:50:28;91499.63;;;10.66;65.69
34506;BME280;20748;42.632;23.198;2023-04-15T07:53:03;91497.97;;;10.61;65.62
34506;BME280;20748;42.632;23.198;2023-04-15T07:55:37;91503.03;;;10.58;66.41
34506;BME280;20748;42.632;23.198;2023-04-15T07:58:11;91506.25;;;10.64;65.99
34506;BME280;20748;42.632;23.198;2023-04-15T08:00:44;91509.53;;;10.99;66.42
34506;BME280;20748;42.632;23.198;2023-04-15T08:03:18;91519.41;;;11.33;63.26
34506;BME280;20748;42.632;23.198;2023-04-15T08:05:52;91514.88;;;11.51;61.54
34506;BME280;20748;42.632;23.198;2023-04-15T08:08:26;91513.69;;;11.69;63.83
34506;BME280;20748;42.632;23.198;2023-04-15T08:11:00;91522.34;;;11.91;59.74
34506;BME280;20748;42.632;23.198;2023-04-15T08:13:34;91521.88;;;11.89;58.04
34506;BME280;20748;42.632;23.198;2023-04-15T08:16:17;91524.69;;;11.84;59.19
34506;BME280;20748;42.632;23.198;2023-04-15T08:18:52;91522.56;;;11.47;58.22
34506;BME280;20748;42.632;23.198;2023-04-15T08:21:26;91533.94;;;11.81;56.40
34506;BME280;20748;42.632;23.198;2023-04-15T08:24:01;91523.03;;;11.79;58.35
34506;BME280;20748;42.632;23.198;2023-04-15T08:26:35;91518.56;;;12.01;56.89
34506;BME280;20748;42.632;23.198;2023-04-15T08:29:09;91522.63;;;12.20;54.86
34506;BME280;20748;42.632;23.198;2023-04-15T08:31:42;91520.88;;;12.03;52.65
34506;BME280;20748;42.632;23.198;2023-04-15T08:34:16;91523.66;;;12.06;50.39
34506;BME280;20748;42.632;23.198;2023-04-15T08:36:50;91506.19;;;12.19;48.76
34506;BME280;20748;42.632;23.198;2023-04-15T08:39:25;91504.31;;;12.20;48.25
34506;BME280;20748;42.632;23.198;2023-04-15T08:42:00;91500.88;;;12.28;48.59
34506;BME280;20748;42.632;23.198;2023-04-15T08:44:35;91486.34;;;12.18;49.89
34506;BME280;20748;42.632;23.198;2023-04-15T08:47:10;91503.50;;;12.07;49.20
34506;BME280;20748;42.632;23.198;2023-04-15T08:49:45;91509.22;;;12.21;49.62
34506;BME280;20748;42.632;23.198;2023-04-15T08:52:25;91500.81;;;12.37;48.77
34506;BME280;20748;42.632;23.198;2023-04-15T08:55:01;91495.78;;;12.66;47.79
34506;BME280;20748;42.632;23.198;2023-04-15T08:57:35;91498.28;;;12.62;49.91
34506;BME280;20748;42.632;23.198;2023-04-15T09:00:11;91500.16;;;12.40;49.52
34506;BME280;20748;42.632;23.198;2023-04-15T09:02:46;91486.78;;;12.88;48.52
34506;BME280;20748;42.632;23.198;2023-04-15T09:05:19;91493.69;;;12.93;49.21
34506;BME280;20748;42.632;23.198;2023-04-15T09:07:53;91488.38;;;13.26;47.20
34506;BME280;20748;42.632;23.198;2023-04-15T09:10:28;91488.25;;;13.10;44.98
34506;BME280;20748;42.632;23.198;2023-04-15T09:13:02;91487.25;;;13.15;42.76
34506;BME280;20748;42.632;23.198;2023-04-15T09:15:37;91480.63;;;13.42;45.18
34506;BME280;20748;42.632;23.198;2023-04-15T09:18:11;91481.94;;;13.36;44.32
34506;BME280;20748;42.632;23.198;2023-04-15T09:20:45;91479.97;;;13.46;43.92
34506;BME280;20748;42.632;23.198;2023-04-15T09:23:19;91470.91;;;13.68;42.88
34506;BME280;20748;42.632;23.198;2023-04-15T09:25:53;91477.13;;;13.38;42.34
34506;BME280;20748;42.632;23.198;2023-04-15T09:28:27;91499.72;;;13.18;40.71
34506;BME280;20748;42.632;23.198;2023-04-15T09:31:01;91496.19;;;13.01;40.46
34506;BME280;20748;42.632;23.198;2023-04-15T09:33:35;91494.91;;;13.45;41.70
34506;BME280;20748;42.632;23.198;2023-04-15T09:36:09;91488.75;;;13.62;40.67
34506;BME280;20748;42.632;23.198;2023-04-15T09:38:53;91494.34;;;14.02;40.42
34506;BME280;20748;42.632;23.198;2023-04-15T09:41:28;91495.56;;;14.33;39.63
34506;BME280;20748;42.632;23.198;2023-04-15T09:44:01;91493.06;;;14.24;40.11
34506;BME280;20748;42.632;23.198;2023-04-15T09:46:43;91504.22;;;14.33;40.23
34506;BME280;20748;42.632;23.198;2023-04-15T09:49:17;91500.03;;;14.45;36.95
34506;BME280;20748;42.632;23.198;2023-04-15T09:51:57;91514.91;;;13.87;36.17
34506;BME280;20748;42.632;23.198;2023-04-15T09:54:39;91508.25;;;13.90;37.84
34506;BME280;20748;42.632;23.198;2023-04-15T09:57:14;91505.59;;;14.02;39.27
34506;BME280;20748;42.632;23.198;2023-04-15T09:59:48;91509.69;;;13.50;40.11
34506;BME280;20748;42.632;23.198;2023-04-15T10:02:21;91510.53;;;13.29;41.68
34506;BME280;20748;42.632;23.198;2023-04-15T10:04:56;91503.19;;;13.22;40.39
34506;BME280;20748;42.632;23.198;2023-04-15T10:07:30;91500.41;;;13.52;41.45
34506;BME280;20748;42.632;23.198;2023-04-15T10:10:04;91498.56;;;13.53;41.24
34506;BME280;20748;42.632;23.198;2023-04-15T10:12:40;91489.16;;;13.77;41.78
34506;BME280;20748;42.632;23.198;2023-04-15T10:15:15;91490.16;;;14.13;41.98
34506;BME280;20748;42.632;23.198;2023-04-15T10:17:49;91487.59;;;14.29;39.58
34506;BME280;20748;42.632;23.198;2023-04-15T10:20:27;91476.53;;;14.36;39.59
34506;BME280;20748;42.632;23.198;2023-04-15T10:23:01;91473.03;;;14.03;39.89
34506;BME280;20748;42.632;23.198;2023-04-15T10:25:35;91482.72;;;14.28;39.91
34506;BME280;20748;42.632;23.198;2023-04-15T10:28:10;91463.03;;;14.50;40.38
34506;BME280;20748;42.632;23.198;2023-04-15T10:30:44;91475.34;;;14.33;40.56
34506;BME280;20748;42.632;23.198;2023-04-15T10:33:21;91474.97;;;14.47;40.99
34506;BME280;20748;42.632;23.198;2023-04-15T10:35:56;91471.69;;;14.79;40.23
34506;BME280;20748;42.632;23.198;2023-04-15T10:38:31;91477.72;;;15.12;39.36
34506;BME280;20748;42.632;23.198;2023-04-15T10:41:16;91469.75;;;14.92;38.97
34506;BME280;20748;42.632;23.198;2023-04-15T10:43:55;91483.81;;;15.00;40.33
34506;BME280;20748;42.632;23.198;2023-04-15T10:46:34;91477.97;;;15.07;39.31
34506;BME280;20748;42.632;23.198;2023-04-15T10:49:11;91471.53;;;15.20;41.89
34506;BME280;20748;42.632;23.198;2023-04-15T10:51:48;91472.47;;;15.44;39.62
34506;BME280;20748;42.632;23.198;2023-04-15T10:54:30;91476.94;;;15.27;38.65
34506;BME280;20748;42.632;23.198;2023-04-15T10:57:09;91487.47;;;15.27;39.81
34506;BME280;20748;42.632;23.198;2023-04-15T11:00:01;91472.06;;;15.26;39.14
34506;BME280;20748;42.632;23.198;2023-04-15T11:02:43;91473.59;;;15.27;38.64
34506;BME280;20748;42.632;23.198;2023-04-15T11:05:18;91483.66;;;15.41;39.62
34506;BME280;20748;42.632;23.198;2023-04-15T11:07:53;91479.16;;;15.57;36.24
34506;BME280;20748;42.632;23.198;2023-04-15T11:10:51;91480.44;;;15.15;36.96
34506;BME280;20748;42.632;23.198;2023-04-15T11:13:28;91468.91;;;15.20;37.58
34506;BME280;20748;42.632;23.198;2023-04-15T11:16:04;91457.78;;;15.43;39.62
34506;BME280;20748;42.632;23.198;2023-04-15T11:18:38;91456.31;;;15.62;39.39
34506;BME280;20748;42.632;23.198;2023-04-15T11:21:11;91460.00;;;15.41;35.85
34506;BME280;20748;42.632;23.198;2023-04-15T11:23:45;91453.88;;;15.53;35.87
34506;BME280;20748;42.632;23.198;2023-04-15T11:26:25;91465.72;;;15.79;37.08
34506;BME280;20748;42.632;23.198;2023-04-15T11:28:59;91465.69;;;15.43;37.86
34506;BME280;20748;42.632;23.198;2023-04-15T11:31:34;91466.97;;;15.17;38.40
34506;BME280;20748;42.632;23.198;2023-04-15T11:34:07;91464.94;;;15.10;37.98
34506;BME280;20748;42.632;23.198;2023-04-15T11:36:42;91459.69;;;15.42;37.83
34506;BME280;20748;42.632;23.198;2023-04-15T11:39:16;91457.13;;;15.46;37.21
34506;BME280;20748;42.632;23.198;2023-04-15T11:41:49;91455.88;;;15.76;38.70
34506;BME280;20748;42.632;23.198;2023-04-15T11:44:23;91454.28;;;16.07;37.45
34506;BME280;20748;42.632;23.198;2023-04-15T11:46:57;91445.97;;;16.05;35.93
34506;BME280;20748;42.632;23.198;2023-04-15T11:49:31;91451.88;;;16.18;36.70
34506;BME280;20748;42.632;23.198;2023-04-15T11:52:09;91452.69;;;16.02;35.86
34506;BME280;20748;42.632;23.198;2023-04-15T11:54:42;91450.97;;;16.49;36.72
34506;BME280;20748;42.632;23.198;2023-04-15T11:57:14;91449.97;;;16.58;36.81
34506;BME280;20748;42.632;23.198;2023-04-15T11:59:46;91436.72;;;16.74;35.93
34506;BME280;20748;42.632;23.198;2023-04-15T12:02:19;91443.28;;;16.84;33.82
34506;BME280;20748;42.632;23.198;2023-04-15T12:05:02;91441.75;;;16.20;34.10
34506;BME280;20748;42.632;23.198;2023-04-15T12:07:56;91431.44;;;16.50;34.96
34506;BME280;20748;42.632;23.198;2023-04-15T12:10:30;91445.78;;;16.76;33.68
34506;BME280;20748;42.632;23.198;2023-04-15T12:13:05;91438.94;;;16.95;35.35
34506;BME280;20748;42.632;23.198;2023-04-15T12:15:37;91442.69;;;16.71;34.69
34506;BME280;20748;42.632;23.198;2023-04-15T12:18:16;91446.66;;;16.41;33.47
34506;BME280;20748;42.632;23.198;2023-04-15T12:20:49;91446.00;;;15.89;35.28
34506;BME280;20748;42.632;23.198;2023-04-15T12:23:21;91446.38;;;15.71;35.46
34506;BME280;20748;42.632;23.198;2023-04-15T12:25:53;91444.13;;;16.05;34.21
34506;BME280;20748;42.632;23.198;2023-04-15T12:28:29;91447.94;;;16.28;35.02
34506;BME280;20748;42.632;23.198;2023-04-15T12:31:06;91447.16;;;16.27;31.83
34506;BME280;20748;42.632;23.198;2023-04-15T12:33:39;91453.81;;;16.01;33.72
34506;BME280;20748;42.632;23.198;2023-04-15T12:36:11;91446.59;;;15.98;32.43
34506;BME280;20748;42.632;23.198;2023-04-15T12:38:44;91441.06;;;16.43;32.96
34506;BME280;20748;42.632;23.198;2023-04-15T12:41:16;91456.31;;;16.53;32.61
34506;BME280;20748;42.632;23.198;2023-04-15T12:43:49;91453.31;;;16.35;32.03
34506;BME280;20748;42.632;23.198;2023-04-15T12:46:21;91460.75;;;16.29;32.96
34506;BME280;20748;42.632;23.198;2023-04-15T12:48:55;91461.44;;;15.90;35.38
34506;BME280;20748;42.632;23.198;2023-04-15T12:51:27;91449.81;;;15.91;33.89
34506;BME280;20748;42.632;23.198;2023-04-15T12:54:00;91448.25;;;16.26;34.26
34506;BME280;20748;42.632;23.198;2023-04-15T12:56:32;91453.88;;;16.24;33.47
34506;BME280;20748;42.632;23.198;2023-04-15T12:59:05;91448.88;;;16.59;33.89
34506;BME280;20748;42.632;23.198;2023-04-15T13:01:38;91443.09;;;16.73;34.17
34506;BME280;20748;42.632;23.198;2023-04-15T13:04:11;91448.91;;;16.82;32.95
34506;BME280;20748;42.632;23.198;2023-04-15T13:06:43;91439.75;;;16.33;32.83
34506;BME280;20748;42.632;23.198;2023-04-15T13:09:16;91446.41;;;15.91;33.35
34506;BME280;20748;42.632;23.198;2023-04-15T13:11:48;91446.25;;;16.39;33.65
34506;BME280;20748;42.632;23.198;2023-04-15T13:14:21;91443.88;;;16.54;31.78
34506;BME280;20748;42.632;23.198;2023-04-15T13:16:53;91451.56;;;16.62;31.23
34506;BME280;20748;42.632;23.198;2023-04-15T13:19:26;91443.25;;;16.60;31.79
34506;BME280;20748;42.632;23.198;2023-04-15T13:21:58;91443.59;;;16.59;32.58
34506;BME280;20748;42.632;23.198;2023-04-15T13:24:31;91443.94;;;16.77;32.59
34506;BME280;20748;42.632;23.198;2023-04-15T13:27:03;91444.75;;;16.81;31.85